createdAt,value
2022-12-11T06:42:45.629Z,15.67
2022-12-11T06:45:15.612Z,14.01
2022-12-11T06:47:44.732Z,13.62
2022-12-11T06:50:13.636Z,14.48
2022-12-11T06:52:42.413Z,15.65
2022-12-11T06:55:14.892Z,15.78
2022-12-11T06:57:43.671Z,15.53
2022-12-11T07:00:13.372Z,15.57
2022-12-11T07:02:42.783Z,15.94
2022-12-11T07:05:21.732Z,15.44
2022-12-11T07:07:50.982Z,15.53
2022-12-11T07:10:20.953Z,14.81
2022-12-11T07:12:49.808Z,14.14
2022-12-11T07:15:18.562Z,14.27
2022-12-11T07:17:47.463Z,14.34
2022-12-11T07:20:16.543Z,13.38
2022-12-11T07:22:46.848Z,14.24
2022-12-11T07:25:16.067Z,14.98
2022-12-11T07:27:44.733Z,15.93
2022-12-11T07:30:14.318Z,15.72
2022-12-11T07:32:43.016Z,15.24
2022-12-11T07:35:12.275Z,15.52
2022-12-11T07:37:45.804Z,16.01
2022-12-11T07:40:15.145Z,15.44
2022-12-11T07:42:46.244Z,16.42
2022-12-11T07:45:16.001Z,15.42
2022-12-11T07:47:45.112Z,15.05
2022-12-11T07:50:14.193Z,14.67
2022-12-11T07:52:43.125Z,16.06
2022-12-11T07:55:14.848Z,17.05
2022-12-11T07:57:43.767Z,15.98
2022-12-11T08:00:13.003Z,15.01
2022-12-11T08:02:41.805Z,14.74
2022-12-11T08:05:14.997Z,14.86
2022-12-11T08:07:43.884Z,15.47
2022-12-11T08:10:12.865Z,15.47
2022-12-11T08:12:41.829Z,16.03
2022-12-11T08:15:11.369Z,17.13
2022-12-11T08:17:41.225Z,16.52
2022-12-11T08:20:10.473Z,17.24
2022-12-11T08:22:39.414Z,17.73
2022-12-11T08:25:09.163Z,18.89
2022-12-11T08:27:38.550Z,17.66
2022-12-11T08:30:07.942Z,17.70
2022-12-11T08:32:36.959Z,17.00
2022-12-11T08:35:05.918Z,18.37
2022-12-11T08:37:35.828Z,18.87
2022-12-11T08:40:04.893Z,18.98
2022-12-11T08:42:33.770Z,19.46
2022-12-11T08:45:02.386Z,19.74
2022-12-11T08:47:31.164Z,19.55
2022-12-11T08:49:59.917Z,18.98
2022-12-11T08:52:30.553Z,17.90
2022-12-11T08:54:59.696Z,18.57
2022-12-11T08:57:29.828Z,18.66
2022-12-11T08:59:58.817Z,19.32
2022-12-11T09:02:27.852Z,18.17
2022-12-11T09:04:56.944Z,18.62
2022-12-11T09:07:26.269Z,18.39
2022-12-11T09:09:58.385Z,18.64
2022-12-11T09:12:27.187Z,18.03
2022-12-11T09:14:56.221Z,18.00
2022-12-11T09:17:25.263Z,17.05
2022-12-11T09:19:53.981Z,16.56
2022-12-11T09:22:22.908Z,16.23
2022-12-11T09:24:51.828Z,16.37
2022-12-11T09:27:22.211Z,16.44
2022-12-11T09:29:51.849Z,16.31
2022-12-11T09:32:20.805Z,16.74
2022-12-11T09:34:52.162Z,16.33
2022-12-11T09:37:21.209Z,16.70
2022-12-11T09:39:49.919Z,16.22
2022-12-11T09:42:45.426Z,16.08
2022-12-11T09:45:17.188Z,15.75
2022-12-11T09:47:51.415Z,15.68
2022-12-11T09:50:27.917Z,14.91
2022-12-11T09:53:21.575Z,15.18
2022-12-11T09:56:05.415Z,15.05
2022-12-11T09:58:46.994Z,14.68
2022-12-11T10:01:33.220Z,14.41
2022-12-11T10:04:22.425Z,14.21
2022-12-11T10:07:22.228Z,14.76
2022-12-11T10:09:55.827Z,15.38
2022-12-11T10:12:56.549Z,14.83
2022-12-11T10:15:45.234Z,15.48
2022-12-11T10:18:23.256Z,15.78
2022-12-11T10:20:55.118Z,15.25
2022-12-11T10:23:36.537Z,15.27
2022-12-11T10:26:20.406Z,15.09
2022-12-11T10:28:49.542Z,14.30
2022-12-11T10:31:28.863Z,14.09
2022-12-11T10:34:10.527Z,13.51
2022-12-11T10:36:42.696Z,12.18
2022-12-11T10:39:17.898Z,12.22
2022-12-11T10:41:49.772Z,12.15
2022-12-11T10:44:25.186Z,11.74
2022-12-11T10:47:08.779Z,11.01
2022-12-11T10:49:39.560Z,10.87
2022-12-11T10:52:14.523Z,10.67
2022-12-11T10:54:49.996Z,10.60
2022-12-11T10:57:30.068Z,10.12
2022-12-11T11:00:00.944Z,10.08
2022-12-11T11:02:42.662Z,9.46
2022-12-11T11:05:40.998Z,9.37
2022-12-11T11:08:22.679Z,9.19
2022-12-11T11:10:54.630Z,8.89
2022-12-11T11:13:26.407Z,8.50
2022-12-11T11:16:12.825Z,8.07
2022-12-11T11:18:43.071Z,8.30
2022-12-11T11:21:20.266Z,7.85
2022-12-11T11:23:53.292Z,7.87
2022-12-11T11:26:30.760Z,7.84
2022-12-11T11:29:08.130Z,8.00
2022-12-11T11:31:37.720Z,7.67
2022-12-11T11:34:19.970Z,7.46
2022-12-11T11:36:58.708Z,7.41
2022-12-11T11:39:32.498Z,7.13
2022-12-11T11:42:28.658Z,7.10
2022-12-11T11:45:04.767Z,7.00
2022-12-11T11:47:43.136Z,6.74
2022-12-11T11:50:21.394Z,6.70
2022-12-11T11:53:01.211Z,6.36
2022-12-11T11:55:30.136Z,6.23
2022-12-11T11:58:00.199Z,6.06
2022-12-11T12:00:33.947Z,5.66
2022-12-11T12:03:24.272Z,5.86
2022-12-11T12:06:18.904Z,5.56
2022-12-11T12:09:19.470Z,5.61
2022-12-11T12:12:11.330Z,5.74
2022-12-11T12:14:53.030Z,5.71
2022-12-11T12:18:00.921Z,5.60
2022-12-11T12:20:53.215Z,5.39
2022-12-11T12:23:37.159Z,5.34
2022-12-11T12:26:12.843Z,5.30
2022-12-11T12:29:13.831Z,5.23
2022-12-11T12:31:48.987Z,5.04
2022-12-11T12:34:51.646Z,5.06
2022-12-11T12:37:47.529Z,5.10
2022-12-11T12:40:30.128Z,4.98
2022-12-11T12:43:27.503Z,4.95
2022-12-11T12:46:26.780Z,4.87
2022-12-11T12:48:58.499Z,4.64
2022-12-11T12:51:28.959Z,4.82
2022-12-11T12:54:03.217Z,4.81
2022-12-11T12:56:34.683Z,4.76
2022-12-11T12:59:03.387Z,4.54
2022-12-11T13:01:32.919Z,4.43
2022-12-11T13:04:26.200Z,4.40
2022-12-11T13:06:58.525Z,4.34
2022-12-11T13:09:29.614Z,4.35
2022-12-11T13:11:58.873Z,4.66
2022-12-11T13:15:17.463Z,4.62
2022-12-11T13:17:46.886Z,4.38
2022-12-11T13:20:27.663Z,4.40
2022-12-11T13:23:08.670Z,4.35
2022-12-11T13:25:56.820Z,4.29
2022-12-11T13:28:34.568Z,4.20
2022-12-11T13:31:31.643Z,4.10
2022-12-11T13:34:14.944Z,4.08
2022-12-11T13:36:50.536Z,3.94
2022-12-11T13:39:23.820Z,3.70
2022-12-11T13:42:04.588Z,3.92
2022-12-11T13:44:40.412Z,3.81
2022-12-11T13:47:16.918Z,3.62
2022-12-11T13:49:50.718Z,3.44
2022-12-11T13:52:23.798Z,3.61
2022-12-11T13:54:56.210Z,3.61
2022-12-11T13:57:29.504Z,3.61
2022-12-11T14:00:00.921Z,3.65
2022-12-11T14:02:41.123Z,3.69
2022-12-11T14:05:16.549Z,3.72
2022-12-11T14:07:58.885Z,3.76
2022-12-11T14:10:31.684Z,3.90
2022-12-11T14:13:03.120Z,3.94
2022-12-11T14:15:34.839Z,3.89
2022-12-11T14:18:06.988Z,4.11
2022-12-11T14:20:36.792Z,4.22
2022-12-11T14:23:10.640Z,4.17
2022-12-11T14:25:40.526Z,4.22
2022-12-11T14:28:19.474Z,3.66
2022-12-11T14:30:52.335Z,4.11
2022-12-11T14:33:27.059Z,4.14
2022-12-11T14:35:57.877Z,3.94
2022-12-11T14:38:48.144Z,3.92
2022-12-11T14:41:55.894Z,3.92
2022-12-11T14:44:28.826Z,3.94
2022-12-11T14:47:05.623Z,4.10
2022-12-11T14:50:07.159Z,4.37
2022-12-11T14:52:44.770Z,4.24
2022-12-11T14:55:28.020Z,4.45
2022-12-11T14:58:20.799Z,4.39
2022-12-11T15:01:22.343Z,3.67
2022-12-11T15:04:03.139Z,4.28
2022-12-11T15:06:35.714Z,4.28
2022-12-11T15:09:22.429Z,4.22
2022-12-11T15:11:53.462Z,4.16
2022-12-11T15:14:26.046Z,4.30
2022-12-11T15:16:59.161Z,4.44
2022-12-11T15:19:36.482Z,4.51
2022-12-11T15:22:10.651Z,4.65
2022-12-11T15:24:49.893Z,4.71
2022-12-11T15:27:41.443Z,4.69
2022-12-11T15:30:30.126Z,4.59
2022-12-11T15:33:11.809Z,4.62
2022-12-11T15:35:53.696Z,4.60
2022-12-11T15:38:35.530Z,4.62
2022-12-11T15:41:06.170Z,4.59
2022-12-11T15:43:39.886Z,4.58
2022-12-11T15:46:10.161Z,4.55
2022-12-11T15:48:39.769Z,4.40
2022-12-11T15:51:09.035Z,4.32
2022-12-11T15:53:38.738Z,4.35
2022-12-11T15:56:08.554Z,4.23
2022-12-11T15:58:38.199Z,4.26
2022-12-11T16:01:08.830Z,4.21
2022-12-11T16:03:38.743Z,4.05
2022-12-11T16:06:13.435Z,3.93
2022-12-11T16:08:43.255Z,3.95
2022-12-11T16:11:15.386Z,4.03
2022-12-11T16:13:45.527Z,4.04
2022-12-11T16:16:15.563Z,4.29
2022-12-11T16:18:45.495Z,4.16
2022-12-11T16:21:18.273Z,3.97
2022-12-11T16:23:51.117Z,3.97
2022-12-11T16:26:21.756Z,4.05
2022-12-11T16:28:52.104Z,3.89
2022-12-11T16:31:23.509Z,3.54
2022-12-11T16:33:53.629Z,3.98
2022-12-11T16:36:24.736Z,3.83
2022-12-11T16:38:56.647Z,3.80
2022-12-11T16:41:27.048Z,3.73
2022-12-11T16:43:57.162Z,3.55
2022-12-11T16:46:27.146Z,3.58
2022-12-11T16:48:57.887Z,2.99
2022-12-11T16:51:27.330Z,3.36
2022-12-11T16:53:56.823Z,3.52
2022-12-11T16:56:27.749Z,3.51
2022-12-11T16:58:57.671Z,3.49
2022-12-11T17:01:26.924Z,3.55
2022-12-11T17:03:56.780Z,3.69
2022-12-11T17:06:26.469Z,3.50
2022-12-11T17:08:56.464Z,3.53
2022-12-11T17:11:27.264Z,3.62
2022-12-11T17:13:58.839Z,3.69
2022-12-11T17:16:34.984Z,3.62
2022-12-11T17:19:08.418Z,3.63
2022-12-11T17:21:38.242Z,3.36
2022-12-11T17:24:11.549Z,3.72
2022-12-11T17:26:41.276Z,3.53
2022-12-11T17:29:13.007Z,3.31
2022-12-11T17:31:43.092Z,3.44
2022-12-11T17:34:12.576Z,3.48
2022-12-11T17:36:42.688Z,3.52
2022-12-11T17:39:13.324Z,3.67
2022-12-11T17:41:43.026Z,3.39
2022-12-11T17:44:12.605Z,3.35
2022-12-11T17:46:41.959Z,3.32
2022-12-11T17:49:11.740Z,3.40
2022-12-11T17:51:41.262Z,3.38
2022-12-11T17:54:12.340Z,3.35
2022-12-11T17:56:42.278Z,3.12
2022-12-11T17:59:11.819Z,3.04
2022-12-11T18:01:41.316Z,3.15
2022-12-11T18:04:10.571Z,3.19
2022-12-11T18:06:40.067Z,3.30
2022-12-11T18:09:10.246Z,3.25
2022-12-11T18:11:40.090Z,3.10
2022-12-11T18:14:16.673Z,3.08
2022-12-11T18:16:47.430Z,3.19
2022-12-11T18:19:18.018Z,3.19
2022-12-11T18:21:48.272Z,3.05
2022-12-11T18:24:18.400Z,2.92
2022-12-11T18:26:47.988Z,3.32
2022-12-11T18:29:17.541Z,3.06
2022-12-11T18:31:47.092Z,3.06
2022-12-11T18:34:16.499Z,2.95
2022-12-11T18:36:46.852Z,2.97
2022-12-11T18:39:17.218Z,3.12
2022-12-11T18:41:58.376Z,3.26
2022-12-11T18:44:36.261Z,3.26
2022-12-11T18:47:05.662Z,3.28
2022-12-11T18:49:35.373Z,2.98
2022-12-11T18:52:05.721Z,2.94
2022-12-11T18:54:35.170Z,3.03
2022-12-11T18:57:04.786Z,3.03
2022-12-11T18:59:34.461Z,3.00
2022-12-11T19:02:04.325Z,2.98
2022-12-11T19:04:34.407Z,3.02
2022-12-11T19:07:04.086Z,2.82
2022-12-11T19:09:37.900Z,2.91
2022-12-11T19:12:08.470Z,2.79
2022-12-11T19:14:37.860Z,3.05
2022-12-11T19:17:07.277Z,3.00
2022-12-11T19:19:36.925Z,3.05
2022-12-11T19:22:06.282Z,2.68
2022-12-11T19:24:35.653Z,2.86
2022-12-11T19:27:11.674Z,2.87
2022-12-11T19:29:42.657Z,2.93
2022-12-11T19:32:12.062Z,3.06
2022-12-11T19:34:42.314Z,3.11
2022-12-11T19:37:11.884Z,2.85
2022-12-11T19:39:41.868Z,2.79
2022-12-11T19:42:11.077Z,2.74
2022-12-11T19:44:40.263Z,2.72
2022-12-11T19:47:09.661Z,2.66
2022-12-11T19:49:38.989Z,2.66
2022-12-11T19:52:08.306Z,2.57
2022-12-11T19:54:37.848Z,2.62
2022-12-11T19:57:07.129Z,2.61
2022-12-11T19:59:36.605Z,2.57
2022-12-11T20:02:06.621Z,2.54
2022-12-11T20:04:36.291Z,2.35
2022-12-11T20:07:05.771Z,2.45
2022-12-11T20:09:35.689Z,2.46
2022-12-11T20:12:07.112Z,2.41
2022-12-11T20:14:36.605Z,2.39
2022-12-11T20:17:12.441Z,2.45
2022-12-11T20:19:43.995Z,2.55
2022-12-11T20:22:13.614Z,2.74
2022-12-11T20:24:43.570Z,2.65
2022-12-11T20:27:13.677Z,2.82
2022-12-11T20:29:43.171Z,2.82
2022-12-11T20:32:12.615Z,2.78
2022-12-11T20:34:42.251Z,2.79
2022-12-11T20:37:11.947Z,2.86
2022-12-11T20:39:41.174Z,2.82
2022-12-11T20:42:11.395Z,2.68
2022-12-11T20:44:45.710Z,2.61
2022-12-11T20:47:20.647Z,2.68
2022-12-11T20:49:51.656Z,2.71
2022-12-11T20:52:21.973Z,2.98
2022-12-11T20:54:51.915Z,2.87
2022-12-11T20:57:21.467Z,3.00
2022-12-11T20:59:51.541Z,2.99
2022-12-11T21:02:21.003Z,2.83
2022-12-11T21:04:51.595Z,2.87
2022-12-11T21:07:20.933Z,3.00
2022-12-11T21:09:50.091Z,2.85
2022-12-11T21:12:19.798Z,2.76
2022-12-11T21:14:49.103Z,2.83
2022-12-11T21:17:18.828Z,2.94
2022-12-11T21:19:48.183Z,2.86
2022-12-11T21:22:18.118Z,2.67
2022-12-11T21:24:47.384Z,2.95
2022-12-11T21:27:17.129Z,2.95
2022-12-11T21:29:46.752Z,2.79
2022-12-11T21:32:16.143Z,2.76
2022-12-11T21:34:46.227Z,2.72
2022-12-11T21:37:15.721Z,2.90
2022-12-11T21:39:45.223Z,2.79
2022-12-11T21:42:14.519Z,2.94
2022-12-11T21:47:33.975Z,3.01
2022-12-11T21:50:04.417Z,2.92
2022-12-11T21:52:33.978Z,2.88
2022-12-11T21:55:03.336Z,2.75
2022-12-11T21:57:33.031Z,2.96
2022-12-11T22:00:05.605Z,2.91
2022-12-11T22:02:41.407Z,2.82
2022-12-11T22:05:15.865Z,2.94
2022-12-11T22:07:45.748Z,2.92
2022-12-11T22:10:15.136Z,2.94
2022-12-11T22:12:44.993Z,2.92
2022-12-11T22:15:15.405Z,3.02
2022-12-11T22:17:45.036Z,2.98
2022-12-11T22:20:14.510Z,2.90
2022-12-11T22:22:43.911Z,2.92
2022-12-11T22:25:13.862Z,2.88
2022-12-11T22:27:44.011Z,2.74
2022-12-11T22:30:13.912Z,2.65
2022-12-11T22:32:44.267Z,3.02
2022-12-11T22:35:15.627Z,2.89
2022-12-11T22:37:45.375Z,2.97
2022-12-11T22:40:14.866Z,3.00
2022-12-11T22:42:45.332Z,2.92
2022-12-11T22:45:14.936Z,2.94
2022-12-11T22:47:44.679Z,2.83
2022-12-11T22:50:15.455Z,2.78
2022-12-11T22:52:46.376Z,2.93
2022-12-11T22:55:16.595Z,2.81
2022-12-11T22:57:45.929Z,2.82
2022-12-11T23:00:16.011Z,2.89
2022-12-11T23:02:46.415Z,2.95
2022-12-11T23:05:15.876Z,2.97
2022-12-11T23:07:45.266Z,3.01
2022-12-11T23:10:14.872Z,3.17
2022-12-11T23:12:45.056Z,3.08
2022-12-11T23:15:14.773Z,2.99
2022-12-11T23:17:44.263Z,2.95
2022-12-11T23:20:14.145Z,2.77
2022-12-11T23:22:43.417Z,2.74
2022-12-11T23:25:15.333Z,2.93
2022-12-11T23:27:44.898Z,2.86
2022-12-11T23:30:14.727Z,2.66
2022-12-11T23:32:44.209Z,2.72
2022-12-11T23:35:14.093Z,2.82
2022-12-11T23:37:43.986Z,2.71
2022-12-11T23:40:16.477Z,2.88
2022-12-11T23:42:46.185Z,2.82
2022-12-11T23:45:15.607Z,2.94
2022-12-11T23:47:45.104Z,2.75
2022-12-11T23:50:14.360Z,2.72
2022-12-11T23:52:43.831Z,2.86
2022-12-11T23:55:13.920Z,2.83
2022-12-11T23:57:43.533Z,2.81
